Time;durP1;ratioP1;P1;durP2;ratioP2;P2;SDS_P1;SDS_P2;PMS_P1;PMS_P2;Temp;Humidity;BMP_temperature;BMP_pressure;BME280_temperature;BME280_humidity;BME280_pressure;Samples;Min_cycle;Max_cycle;Signal;HPM_P1;HPM_P2
2022/07/15 00:00:35;;;;;;;2.65;0.85;;;21.10;66.00;;;;;;5055582;28;20028;-93
2022/07/15 00:03:01;;;;;;;1.27;0.70;;;21.10;66.40;;;;;;5055785;28;20029;-94
2022/07/15 00:05:27;;;;;;;1.27;0.65;;;21.10;66.40;;;;;;5055555;28;20028;-93
2022/07/15 00:07:53;;;;;;;2.80;0.63;;;21.20;66.50;;;;;;5055454;28;20025;-93
2022/07/15 00:10:20;;;;;;;2.25;0.75;;;21.20;66.70;;;;;;5055091;28;20031;-92
2022/07/15 00:12:49;;;;;;;2.47;0.70;;;21.30;67.20;;;;;;5054933;28;20031;-93
2022/07/15 00:15:17;;;;;;;4.65;0.90;;;21.30;66.40;;;;;;5054950;28;20032;-94
2022/07/15 00:17:43;;;;;;;6.35;2.22;;;21.40;66.40;;;;;;5054650;28;20488;-93
2022/07/15 00:20:10;;;;;;;2.88;0.73;;;21.50;66.20;;;;;;5054726;28;20028;-93
2022/07/15 00:22:37;;;;;;;3.58;0.88;;;21.60;65.90;;;;;;5055120;28;20028;-93
2022/07/15 00:25:03;;;;;;;4.57;0.80;;;21.70;65.80;;;;;;5055312;28;20498;-92
2022/07/15 00:27:29;;;;;;;4.90;0.63;;;21.80;65.70;;;;;;5063092;28;20492;-93
2022/07/15 00:29:54;;;;;;;9.02;1.45;;;21.90;65.50;;;;;;5074405;28;20071;-91
2022/07/15 00:32:21;;;;;;;2.10;0.57;;;22.10;66.10;;;;;;5075140;28;20032;-92
2022/07/15 00:34:46;;;;;;;3.40;0.80;;;22.30;67.70;;;;;;5071921;28;20027;-94
2022/07/15 00:37:12;;;;;;;3.10;0.82;;;22.40;68.00;;;;;;5056488;28;20017;-96
2022/07/15 00:39:39;;;;;;;1.73;0.55;;;22.50;68.40;;;;;;5055039;28;20086;-92
2022/07/15 00:42:05;;;;;;;4.10;0.60;;;22.60;69.50;;;;;;5055172;28;20040;-94
2022/07/15 00:44:30;;;;;;;2.85;0.80;;;22.60;69.00;;;;;;5055001;28;20450;-95
2022/07/15 00:46:56;;;;;;;4.57;0.77;;;22.70;69.20;;;;;;5054850;28;20020;-93
2022/07/15 00:49:22;;;;;;;4.00;0.50;;;22.70;69.70;;;;;;5054658;28;20119;-95
2022/07/15 00:51:51;;;;;;;3.17;0.63;;;22.70;70.70;;;;;;5054401;28;20036;-94
2022/07/15 00:54:23;;;;;;;3.15;0.60;;;22.70;70.30;;;;;;5054653;28;20020;-94
2022/07/15 00:56:55;;;;;;;3.25;0.50;;;22.60;70.30;;;;;;5052667;28;20032;-94
2022/07/15 00:59:23;;;;;;;5.97;0.90;;;22.60;70.20;;;;;;5052901;28;20077;-93
2022/07/15 01:01:50;;;;;;;1.92;1.10;;;22.50;70.40;;;;;;5054217;28;20040;-93
2022/07/15 01:04:18;;;;;;;5.43;0.60;;;22.40;70.70;;;;;;5054910;28;20028;-93
2022/07/15 01:06:43;;;;;;;1.02;0.50;;;22.40;71.40;;;;;;5057218;28;20054;-93
2022/07/15 01:09:09;;;;;;;4.03;1.10;;;22.40;71.30;;;;;;5073374;28;20029;-93
2022/07/15 01:11:36;;;;;;;2.92;0.60;;;22.40;71.60;;;;;;5053992;28;20078;-92
2022/07/15 01:14:02;;;;;;;1.17;0.47;;;22.50;71.30;;;;;;5054812;28;20029;-96
2022/07/15 01:16:28;;;;;;;3.67;0.60;;;22.50;71.20;;;;;;5054601;28;20035;-96
2022/07/15 01:18:55;;;;;;;2.92;0.60;;;22.50;70.80;;;;;;5058349;28;20020;-96
2022/07/15 01:21:21;;;;;;;4.55;0.80;;;22.40;70.90;;;;;;5068007;28;20119;-94
2022/07/15 01:23:47;;;;;;;2.03;0.70;;;22.40;70.90;;;;;;5062215;28;20031;-94
2022/07/15 01:26:14;;;;;;;1.80;0.40;;;22.40;70.60;;;;;;5055651;28;20029;-93
2022/07/15 01:28:42;;;;;;;2.47;0.50;;;22.40;69.40;;;;;;5055648;28;20043;-87
2022/07/15 01:31:08;;;;;;;1.73;0.50;;;22.50;68.50;;;;;;5055333;28;20137;-94
2022/07/15 01:33:34;;;;;;;4.30;0.80;;;22.70;68.00;;;;;;5054840;28;20043;-94
2022/07/15 01:36:00;;;;;;;9.70;0.60;;;23.00;66.70;;;;;;5054917;28;20078;-92
2022/07/15 01:38:27;;;;;;;2.65;0.73;;;23.20;67.10;;;;;;5056394;28;20546;-96
2022/07/15 01:40:54;;;;;;;5.22;0.65;;;23.40;66.80;;;;;;5074510;28;20134;-93
2022/07/15 01:43:19;;;;;;;4.35;0.57;;;23.60;65.50;;;;;;5066377;28;20059;-93
2022/07/15 01:45:46;;;;;;;7.50;0.90;;;23.90;64.60;;;;;;5052975;28;20049;-94
2022/07/15 01:50:59;;;;;;;4.15;0.70;;;24.10;64.40;;;;;;5068056;28;20048;-94
2022/07/15 01:53:26;;;;;;;6.15;0.60;;;24.20;65.20;;;;;;5034565;28;20063;-94
2022/07/15 01:55:53;;;;;;;1.20;0.50;;;24.30;64.50;;;;;;5039713;28;20044;-95
2022/07/15 01:58:19;;;;;;;13.40;0.80;;;24.30;64.40;;;;;;5036808;28;20145;-94
2022/07/15 02:00:47;;;;;;;3.00;0.60;;;24.30;64.30;;;;;;5023590;28;20521;-96
2022/07/15 02:03:13;;;;;;;1.27;0.60;;;24.20;64.20;;;;;;5023420;28;20041;-95
2022/07/15 02:05:39;;;;;;;6.07;1.02;;;24.20;64.40;;;;;;5026330;28;20034;-91
2022/07/15 02:08:05;;;;;;;3.10;0.50;;;24.10;64.30;;;;;;5047154;28;20082;-92
2022/07/15 02:10:40;;;;;;;3.03;0.60;;;24.10;64.20;;;;;;5053856;28;20523;-89
2022/07/15 02:13:10;;;;;;;2.90;0.90;;;24.20;64.30;;;;;;5049772;28;20040;-91
2022/07/15 02:15:37;;;;;;;4.88;0.82;;;24.10;64.10;;;;;;5049160;28;20048;-90
2022/07/15 02:18:05;;;;;;;1.25;0.50;;;24.20;64.00;;;;;;5052824;28;20499;-88
2022/07/15 02:20:32;;;;;;;3.92;0.75;;;24.20;63.80;;;;;;5046225;28;20032;-92
2022/07/15 02:22:58;;;;;;;4.68;0.50;;;24.20;63.30;;;;;;5053665;28;20090;-96
2022/07/15 02:25:30;;;;;;;7.28;0.73;;;24.40;62.10;;;;;;5052818;28;20112;-93
2022/07/15 02:27:57;;;;;;;4.82;0.60;;;24.60;60.80;;;;;;5070976;28;20112;-92
2022/07/15 02:30:28;;;;;;;2.17;0.50;;;24.70;60.10;;;;;;5071147;28;20032;-92
2022/07/15 02:32:54;;;;;;;3.92;0.50;;;24.90;59.30;;;;;;5053331;28;20094;-91
2022/07/15 02:35:19;;;;;;;5.85;0.50;;;24.90;58.70;;;;;;5052878;28;20021;-92
2022/07/15 02:37:46;;;;;;;0.93;0.43;;;24.90;57.60;;;;;;5052546;28;20028;-95
2022/07/15 02:40:12;;;;;;;2.08;0.60;;;24.90;56.90;;;;;;5051248;28;20024;-92
2022/07/15 02:42:37;;;;;;;1.63;0.50;;;24.90;56.80;;;;;;5052518;28;20047;-93
2022/07/15 02:45:04;;;;;;;1.50;0.68;;;25.00;56.30;;;;;;5053514;28;20060;-92
2022/07/15 02:47:29;;;;;;;3.45;0.40;;;24.90;55.30;;;;;;5052567;28;20037;-89
2022/07/15 02:49:55;;;;;;;0.85;0.30;;;25.00;54.90;;;;;;5053266;28;20021;-91
2022/07/15 02:52:21;;;;;;;0.65;0.35;;;25.00;54.90;;;;;;5053224;28;20044;-90
2022/07/15 02:54:47;;;;;;;0.60;0.30;;;25.00;55.10;;;;;;5052921;28;20031;-90
2022/07/15 02:57:13;;;;;;;3.20;0.30;;;24.90;53.90;;;;;;5052935;28;20016;-92
2022/07/15 02:59:39;;;;;;;2.03;0.40;;;25.00;54.00;;;;;;5052804;28;20488;-92
2022/07/15 03:02:04;;;;;;;1.55;0.43;;;24.90;53.50;;;;;;5052490;28;20033;-92
2022/07/15 03:04:30;;;;;;;0.82;0.40;;;24.90;53.70;;;;;;5053164;28;20035;-93
2022/07/15 03:06:55;;;;;;;3.28;0.40;;;24.80;54.20;;;;;;5053739;28;20032;-90
2022/07/15 03:09:21;;;;;;;1.15;0.45;;;24.70;55.10;;;;;;5056526;28;20025;-92
2022/07/15 03:11:47;;;;;;;2.80;0.40;;;24.70;55.50;;;;;;5056295;28;20047;-90
2022/07/15 03:14:13;;;;;;;1.15;0.40;;;24.60;55.60;;;;;;5056391;28;20025;-93
2022/07/15 03:16:39;;;;;;;0.50;0.30;;;24.60;56.60;;;;;;5056151;28;20036;-92
2022/07/15 03:19:04;;;;;;;1.00;0.40;;;24.50;56.20;;;;;;5056436;28;20503;-92
2022/07/15 03:21:30;;;;;;;0.80;0.30;;;24.40;55.90;;;;;;5083518;28;20039;-92
2022/07/15 03:23:56;;;;;;;0.88;0.30;;;24.40;55.80;;;;;;5102740;28;20565;-93
2022/07/15 03:26:21;;;;;;;1.17;0.30;;;24.40;55.40;;;;;;5094432;28;20393;-92
2022/07/15 03:28:47;;;;;;;0.82;0.30;;;24.30;55.30;;;;;;5076142;28;20115;-93
2022/07/15 03:31:13;;;;;;;2.05;0.30;;;24.30;55.50;;;;;;5076142;28;20508;-94
2022/07/15 03:33:38;;;;;;;2.60;0.28;;;24.30;55.50;;;;;;5076188;28;20028;-92
2022/07/15 03:36:05;;;;;;;4.78;0.40;;;24.30;55.20;;;;;;5075873;28;20024;-93
2022/07/15 03:38:31;;;;;;;0.40;0.30;;;24.30;56.90;;;;;;5076243;28;20027;-92
2022/07/15 03:40:57;;;;;;;8.70;0.40;;;24.30;56.90;;;;;;5075570;28;20064;-92
2022/07/15 03:43:26;;;;;;;1.83;0.32;;;24.20;59.00;;;;;;5075917;28;20377;-92
2022/07/15 03:45:52;;;;;;;4.00;0.30;;;24.20;58.10;;;;;;5076837;28;20031;-94
2022/07/15 03:48:19;;;;;;;2.13;0.30;;;24.20;58.20;;;;;;5076039;28;20020;-92
2022/07/15 03:50:44;;;;;;;0.60;0.30;;;24.20;58.60;;;;;;5075667;28;20043;-93
2022/07/15 03:53:10;;;;;;;1.02;0.63;;;24.10;58.00;;;;;;5092875;28;20024;-92
2022/07/15 03:55:38;;;;;;;2.08;0.40;;;24.10;58.40;;;;;;5075932;28;20755;-92
2022/07/15 03:58:04;;;;;;;1.65;0.45;;;24.10;58.40;;;;;;5075835;28;20089;-93
2022/07/15 04:00:30;;;;;;;1.90;0.38;;;24.10;58.80;;;;;;5058060;28;20024;-91
2022/07/15 04:02:56;;;;;;;0.70;0.30;;;24.10;59.70;;;;;;5055491;28;20046;-92
2022/07/15 04:05:21;;;;;;;0.65;0.30;;;24.00;58.50;;;;;;5055306;28;20036;-93
2022/07/15 04:07:48;;;;;;;4.10;0.30;;;24.00;57.50;;;;;;5055227;28;20040;-93
2022/07/15 04:10:15;;;;;;;0.60;0.30;;;24.10;57.20;;;;;;5055164;28;20031;-93
2022/07/15 04:12:41;;;;;;;1.67;0.95;;;24.10;57.60;;;;;;5072974;28;20099;-92
2022/07/15 04:15:07;;;;;;;2.97;0.30;;;24.10;58.20;;;;;;5061242;28;20046;-95
2022/07/15 04:17:33;;;;;;;1.42;0.40;;;24.00;58.70;;;;;;5074253;28;20024;-92
2022/07/15 04:19:59;;;;;;;2.85;0.30;;;24.00;59.40;;;;;;5073673;28;20050;-93
2022/07/15 04:22:25;;;;;;;1.58;0.40;;;24.00;59.20;;;;;;5056735;28;20041;-92
2022/07/15 04:24:51;;;;;;;0.55;0.30;;;23.90;58.90;;;;;;5055193;28;20020;-93
2022/07/15 04:27:16;;;;;;;4.35;0.40;;;23.90;59.60;;;;;;5054463;28;20024;-93
2022/07/15 04:29:42;;;;;;;2.65;0.40;;;23.80;59.00;;;;;;5055075;28;20123;-92
2022/07/15 04:32:08;;;;;;;0.82;0.40;;;23.80;60.10;;;;;;5052418;28;20079;-95
2022/07/15 04:34:33;;;;;;;4.35;0.50;;;23.80;61.40;;;;;;5046639;28;20500;-94
2022/07/15 04:37:00;;;;;;;1.15;0.40;;;23.60;64.00;;;;;;5032107;28;20025;-93
2022/07/15 04:39:26;;;;;;;2.00;0.40;;;23.50;66.80;;;;;;5036050;28;20538;-93
2022/07/15 04:41:51;;;;;;;5.88;0.60;;;23.30;70.70;;;;;;5035938;28;20349;-95
2022/07/15 04:44:18;;;;;;;4.30;0.52;;;23.20;71.80;;;;;;5036320;28;20111;-94
2022/07/15 04:46:44;;;;;;;1.17;0.50;;;23.00;73.20;;;;;;5035501;28;20056;-94
2022/07/15 04:51:54;;;;;;;0.85;0.50;;;22.80;75.00;;;;;;5054788;28;20106;-95
2022/07/15 04:54:19;;;;;;;1.25;0.50;;;22.70;75.50;;;;;;5036147;28;20036;-95
2022/07/15 04:56:45;;;;;;;3.28;0.77;;;22.70;75.60;;;;;;5046017;28;20106;-96
2022/07/15 04:59:11;;;;;;;0.43;0.30;;;22.70;76.00;;;;;;5036319;28;20016;-95
2022/07/15 05:01:37;;;;;;;0.40;0.30;;;22.60;75.50;;;;;;5035756;28;20040;-95
2022/07/15 05:04:02;;;;;;;0.50;0.30;;;22.60;74.40;;;;;;5037421;28;20029;-94
2022/07/15 05:06:28;;;;;;;1.48;0.60;;;22.60;74.10;;;;;;5035667;28;20029;-94
2022/07/15 05:08:54;;;;;;;1.58;0.57;;;22.60;74.10;;;;;;5035932;28;20021;-94
2022/07/15 05:11:20;;;;;;;1.25;0.55;;;22.60;74.90;;;;;;5035014;28;20066;-93
2022/07/15 05:13:45;;;;;;;6.28;0.93;;;22.50;76.30;;;;;;5035458;28;20112;-94
2022/07/15 05:16:11;;;;;;;2.88;0.80;;;22.40;77.90;;;;;;5036027;28;20029;-94
2022/07/15 05:18:37;;;;;;;7.05;1.10;;;22.40;80.30;;;;;;5036195;28;20450;-94
2022/07/15 05:21:03;;;;;;;1.75;0.77;;;22.30;82.30;;;;;;5040201;28;20483;-94
2022/07/15 05:23:30;;;;;;;5.53;0.50;;;22.20;84.20;;;;;;5056418;28;20040;-96
2022/07/15 05:25:55;;;;;;;1.80;0.52;;;22.10;85.70;;;;;;5043785;28;20119;-94
2022/07/15 05:28:21;;;;;;;1.65;0.40;;;22.00;88.90;;;;;;5070605;28;20511;-94
2022/07/15 05:30:47;;;;;;;1.13;0.50;;;21.90;89.80;;;;;;5057014;28;20054;-93
2022/07/15 05:33:16;;;;;;;1.35;0.40;;;21.90;89.80;;;;;;5073466;28;20020;-93
2022/07/15 05:35:41;;;;;;;3.22;0.43;;;21.90;90.50;;;;;;5072424;28;20434;-93
2022/07/15 05:38:07;;;;;;;4.93;0.60;;;21.90;90.80;;;;;;5073130;28;20085;-93
2022/07/15 05:40:33;;;;;;;2.22;0.50;;;21.90;91.00;;;;;;5072983;28;20491;-96
2022/07/15 05:42:59;;;;;;;5.75;0.47;;;21.90;91.50;;;;;;5073719;28;20036;-94
2022/07/15 05:45:25;;;;;;;1.95;0.57;;;22.00;91.70;;;;;;5072371;28;20084;-95
2022/07/15 05:47:51;;;;;;;1.73;0.47;;;22.00;91.50;;;;;;5076337;28;20008;-93
2022/07/15 05:50:17;;;;;;;2.58;0.50;;;22.10;91.40;;;;;;5090828;28;20012;-94
2022/07/15 05:52:43;;;;;;;2.15;0.40;;;22.10;91.30;;;;;;5091289;28;20020;-94
2022/07/15 05:55:10;;;;;;;0.57;0.30;;;22.10;91.70;;;;;;5087785;28;20036;-92
2022/07/15 05:57:36;;;;;;;0.80;0.40;;;22.10;92.30;;;;;;5075561;28;20090;-92
2022/07/15 06:00:03;;;;;;;1.20;0.40;;;22.00;93.10;;;;;;5074800;28;20032;-91
2022/07/15 06:02:30;;;;;;;5.60;0.65;;;21.90;93.70;;;;;;5068941;28;20052;-92
2022/07/15 06:04:56;;;;;;;1.48;0.60;;;21.80;95.60;;;;;;5051829;28;20550;-92
2022/07/15 06:07:22;;;;;;;4.72;0.80;;;21.70;96.50;;;;;;5051420;28;20028;-91
2022/07/15 06:09:50;;;;;;;3.63;0.63;;;21.70;97.10;;;;;;5051122;28;20082;-92
2022/07/15 06:12:16;;;;;;;2.20;0.50;;;21.70;99.30;;;;;;5051277;28;20020;-90
2022/07/15 06:14:43;;;;;;;2.05;0.55;;;21.70;99.90;;;;;;5069333;28;20033;-93
2022/07/15 06:17:09;;;;;;;2.95;0.68;;;21.70;99.90;;;;;;5051532;28;20021;-91
2022/07/15 06:19:34;;;;;;;1.00;0.40;;;21.70;99.90;;;;;;5051642;28;20120;-92
2022/07/15 06:22:00;;;;;;;1.95;0.60;;;21.70;99.90;;;;;;5051527;28;20039;-92
2022/07/15 06:24:26;;;;;;;4.25;0.50;;;21.70;99.90;;;;;;5050156;28;20195;-92
2022/07/15 06:26:52;;;;;;;0.98;0.50;;;21.70;99.90;;;;;;5051229;28;20556;-92
2022/07/15 06:29:18;;;;;;;4.43;0.60;;;21.70;99.90;;;;;;5068629;28;20108;-92
2022/07/15 06:31:43;;;;;;;1.10;0.40;;;21.70;99.90;;;;;;5036415;28;20819;-93
2022/07/15 06:34:09;;;;;;;1.33;0.50;;;21.70;99.90;;;;;;5033622;28;20032;-91
2022/07/15 06:36:35;;;;;;;2.30;0.55;;;21.70;99.90;;;;;;5033366;28;20029;-92
2022/07/15 06:39:01;;;;;;;1.20;0.43;;;21.70;99.90;;;;;;5033740;28;20029;-91
2022/07/15 06:41:26;;;;;;;3.47;0.57;;;21.60;99.90;;;;;;5035657;28;20036;-91
2022/07/15 06:43:52;;;;;;;2.25;0.52;;;21.60;99.90;;;;;;5055051;28;20028;-90
2022/07/15 06:46:18;;;;;;;2.35;0.60;;;21.60;99.90;;;;;;5037154;28;20025;-91
2022/07/15 06:48:44;;;;;;;2.13;0.50;;;21.70;99.90;;;;;;5036658;28;20028;-93
2022/07/15 06:51:10;;;;;;;2.55;0.60;;;21.70;99.90;;;;;;5036968;28;20040;-91
2022/07/15 06:53:36;;;;;;;1.77;0.50;;;21.70;99.90;;;;;;5037128;28;20056;-92
2022/07/15 06:56:02;;;;;;;1.63;0.60;;;21.80;99.90;;;;;;5036940;28;20418;-91
2022/07/15 06:58:27;;;;;;;2.47;0.70;;;21.90;99.90;;;;;;5036729;28;20030;-92
2022/07/15 07:00:53;;;;;;;1.00;0.57;;;22.00;99.90;;;;;;5036712;28;20021;-92
2022/07/15 07:03:28;;;;;;;0.95;0.43;;;22.00;99.90;;;;;;5036866;28;20481;-92
2022/07/15 07:05:53;;;;;;;1.70;0.50;;;22.10;99.90;;;;;;5036884;28;20028;-93
2022/07/15 07:08:19;;;;;;;3.08;0.52;;;22.00;99.90;;;;;;5037307;28;20416;-91
2022/07/15 07:10:45;;;;;;;2.75;0.50;;;21.90;99.90;;;;;;5036358;28;20658;-92
2022/07/15 07:13:10;;;;;;;1.23;0.50;;;21.90;99.90;;;;;;5037059;28;20116;-92
2022/07/15 07:15:36;;;;;;;2.15;0.73;;;21.80;99.90;;;;;;5036502;28;20409;-91
2022/07/15 07:18:02;;;;;;;5.03;0.60;;;21.80;99.90;;;;;;5036519;28;20032;-92
2022/07/15 07:20:28;;;;;;;1.88;0.55;;;21.80;99.90;;;;;;5036414;28;20053;-91
2022/07/15 07:22:54;;;;;;;2.10;0.73;;;21.80;99.90;;;;;;5036371;28;20061;-93
2022/07/15 07:25:19;;;;;;;2.15;0.57;;;22.00;99.90;;;;;;5036674;28;20029;-91
2022/07/15 07:27:45;;;;;;;3.53;0.60;;;22.30;99.90;;;;;;5036319;28;20025;-92
2022/07/15 07:30:11;;;;;;;4.05;0.65;;;22.60;99.90;;;;;;5038531;28;20481;-91
2022/07/15 07:32:50;;;;;;;2.00;0.50;;;22.90;99.90;;;;;;5056328;28;20178;-92
2022/07/15 07:35:16;;;;;;;1.70;0.60;;;23.10;99.90;;;;;;5055831;28;20554;-92
2022/07/15 07:37:42;;;;;;;2.45;0.88;;;23.10;99.90;;;;;;5055998;28;20020;-91
2022/07/15 07:40:08;;;;;;;2.03;0.82;;;23.00;99.90;;;;;;5056392;28;20048;-91
2022/07/15 07:42:34;;;;;;;4.43;0.70;;;22.90;99.90;;;;;;5055613;28;20048;-92
2022/07/15 07:45:01;;;;;;;4.72;1.02;;;22.90;99.90;;;;;;5052938;28;20113;-90
2022/07/15 07:47:27;;;;;;;1.35;0.52;;;22.80;99.90;;;;;;5053387;28;20151;-92
2022/07/15 07:49:53;;;;;;;0.77;0.43;;;22.90;99.90;;;;;;5055777;28;20060;-90
2022/07/15 07:52:18;;;;;;;5.50;0.80;;;23.00;99.90;;;;;;5054500;28;20143;-91
2022/07/15 07:54:44;;;;;;;1.48;0.80;;;23.30;99.90;;;;;;5055512;28;20081;-91
2022/07/15 07:57:10;;;;;;;2.55;0.50;;;23.80;99.90;;;;;;5055282;28;20035;-92
2022/07/15 07:59:36;;;;;;;1.02;0.60;;;24.30;99.90;;;;;;5055018;28;20408;-91
2022/07/15 08:02:03;;;;;;;1.33;0.63;;;24.70;98.60;;;;;;5055416;28;20085;-92
2022/07/15 08:04:30;;;;;;;2.67;0.55;;;25.10;97.30;;;;;;5056080;28;20033;-91
2022/07/15 08:06:56;;;;;;;3.72;0.88;;;25.40;96.60;;;;;;5054436;28;20032;-91
2022/07/15 08:09:22;;;;;;;5.40;0.57;;;25.80;96.10;;;;;;5055592;28;20033;-92
2022/07/15 08:11:48;;;;;;;3.17;0.60;;;26.60;94.90;;;;;;5055844;28;20040;-91
2022/07/15 08:14:14;;;;;;;3.53;0.50;;;27.30;93.60;;;;;;5055235;28;20166;-93
2022/07/15 08:16:42;;;;;;;0.90;0.50;;;27.80;90.90;;;;;;5054433;28;20032;-91
2022/07/15 08:19:08;;;;;;;3.13;0.70;;;27.90;89.40;;;;;;5055353;28;20061;-92
2022/07/15 08:21:34;;;;;;;2.05;0.60;;;28.10;86.90;;;;;;5055734;28;20039;-91
2022/07/15 08:24:00;;;;;;;2.97;0.63;;;28.10;84.20;;;;;;5054703;28;20025;-93
2022/07/15 08:26:26;;;;;;;0.90;0.50;;;28.10;82.60;;;;;;5055191;28;20032;-94
2022/07/15 08:28:52;;;;;;;2.13;0.50;;;28.00;80.50;;;;;;5054712;28;20028;-92
2022/07/15 08:31:19;;;;;;;2.10;0.63;;;27.70;81.50;;;;;;5072492;28;20118;-90
2022/07/15 08:33:45;;;;;;;1.88;0.50;;;27.40;80.70;;;;;;5054715;28;20482;-92
2022/07/15 08:36:11;;;;;;;1.00;0.50;;;27.10;81.40;;;;;;5055030;28;20056;-90
2022/07/15 08:38:37;;;;;;;1.20;0.65;;;26.80;80.20;;;;;;5054570;28;20036;-91
2022/07/15 08:41:03;;;;;;;2.63;0.60;;;26.50;79.70;;;;;;5054585;28;20036;-90
2022/07/15 08:43:29;;;;;;;0.98;0.60;;;26.10;79.60;;;;;;5054531;28;20243;-89
2022/07/15 08:45:55;;;;;;;1.17;0.52;;;25.90;79.90;;;;;;5054174;28;20107;-91
2022/07/15 08:48:28;;;;;;;1.25;0.50;;;25.70;80.60;;;;;;5054458;28;20028;-89
2022/07/15 08:50:55;;;;;;;3.58;0.80;;;25.50;81.30;;;;;;5074535;28;20040;-91
2022/07/15 08:53:21;;;;;;;1.48;0.82;;;25.50;81.30;;;;;;5074450;28;20032;-90
2022/07/15 08:55:47;;;;;;;0.93;0.50;;;25.40;80.90;;;;;;5074316;28;20024;-91
2022/07/15 08:58:13;;;;;;;1.25;0.65;;;25.50;81.70;;;;;;5075031;28;20124;-89
2022/07/15 09:00:39;;;;;;;2.53;0.85;;;25.50;81.80;;;;;;5074491;28;20621;-89
2022/07/15 09:03:05;;;;;;;3.65;1.00;;;25.50;82.50;;;;;;5074837;28;20420;-90
2022/07/15 09:05:36;;;;;;;1.95;0.70;;;25.60;82.90;;;;;;5074018;28;20069;-90
2022/07/15 09:08:10;;;;;;;1.17;0.60;;;25.80;82.10;;;;;;5073634;28;20276;-90
2022/07/15 09:10:52;;;;;;;2.15;0.70;;;26.20;82.20;;;;;;5074499;28;20024;-90
2022/07/15 09:13:40;;;;;;;1.58;0.77;;;26.80;79.90;;;;;;5073236;28;20040;-91
2022/07/15 09:16:08;;;;;;;1.95;0.60;;;27.10;78.00;;;;;;5074113;28;20039;-90
2022/07/15 09:18:38;;;;;;;3.17;1.15;;;27.20;76.80;;;;;;5091996;28;20019;-90
2022/07/15 09:21:18;;;;;;;0.88;0.50;;;27.10;75.60;;;;;;5068034;28;20177;-91
2022/07/15 09:23:45;;;;;;;2.55;0.90;;;26.90;75.00;;;;;;5052459;28;20123;-88
2022/07/15 09:26:27;;;;;;;1.52;0.60;;;26.70;74.70;;;;;;5053129;28;20496;-90
2022/07/15 09:28:53;;;;;;;2.33;0.90;;;26.60;74.70;;;;;;5053996;28;20059;-90
2022/07/15 09:34:12;;;;;;;3.50;0.70;;;26.30;74.00;;;;;;5065497;28;20040;-90
2022/07/15 09:36:43;;;;;;;2.65;1.00;;;26.10;73.70;;;;;;5055843;28;20106;-89
2022/07/15 09:39:08;;;;;;;4.13;1.00;;;26.00;74.50;;;;;;5051914;28;20082;-89
2022/07/15 09:41:39;;;;;;;1.45;0.70;;;26.10;74.30;;;;;;5036996;28;20029;-89
2022/07/15 09:44:07;;;;;;;2.15;0.70;;;26.00;72.90;;;;;;5036099;28;20021;-92
2022/07/15 09:46:41;;;;;;;1.67;0.65;;;25.90;73.20;;;;;;5033913;28;20025;-92
2022/07/15 09:49:08;;;;;;;2.42;0.80;;;25.90;73.80;;;;;;5033495;28;20110;-90
2022/07/15 09:52:08;;;;;;;2.40;0.80;;;26.00;73.90;;;;;;5033299;28;20032;-91
2022/07/15 09:54:39;;;;;;;1.10;0.50;;;26.20;73.80;;;;;;5024708;28;20059;-91
2022/07/15 09:57:08;;;;;;;10.98;1.20;;;26.70;73.00;;;;;;5033763;28;20029;-91
2022/07/15 09:59:35;;;;;;;1.10;0.60;;;27.70;72.00;;;;;;5033576;28;20029;-92
2022/07/15 10:02:02;;;;;;;1.98;0.98;;;29.00;69.30;;;;;;5033636;28;20481;-91
2022/07/15 10:04:29;;;;;;;2.55;1.00;;;29.90;65.30;;;;;;5051998;28;20033;-89
2022/07/15 10:06:56;;;;;;;13.50;0.82;;;30.50;61.20;;;;;;5033151;28;20025;-90
2022/07/15 10:09:24;;;;;;;0.90;0.60;;;30.50;60.00;;;;;;5034592;28;20028;-91
2022/07/15 10:11:53;;;;;;;1.60;0.82;;;30.20;58.10;;;;;;5034489;28;20078;-91
2022/07/15 10:14:31;;;;;;;3.00;1.10;;;30.10;57.00;;;;;;5041469;28;20037;-93
2022/07/15 10:17:08;;;;;;;13.23;0.88;;;30.10;57.50;;;;;;5037199;28;20052;-89
2022/07/15 10:19:48;;;;;;;4.10;0.88;;;30.20;57.90;;;;;;5037621;28;20055;-90
2022/07/15 10:22:52;;;;;;;1.48;0.73;;;30.20;57.70;;;;;;5036928;28;20037;-91
2022/07/15 10:25:31;;;;;;;2.47;0.70;;;30.30;56.40;;;;;;5037352;28;20124;-92
2022/07/15 10:28:05;;;;;;;2.25;0.90;;;30.10;54.10;;;;;;5037186;28;20106;-92
2022/07/15 10:30:32;;;;;;;3.50;0.93;;;29.80;58.40;;;;;;5040039;28;20106;-92
2022/07/15 10:33:03;;;;;;;2.75;0.80;;;29.50;60.00;;;;;;5057468;28;20552;-91
2022/07/15 10:36:01;;;;;;;1.52;0.90;;;29.50;59.30;;;;;;5056740;28;20036;-92
2022/07/15 10:38:31;;;;;;;1.85;0.90;;;29.60;57.80;;;;;;5055061;28;20040;-91
2022/07/15 10:41:01;;;;;;;2.42;0.65;;;29.50;56.50;;;;;;5057135;28;20622;-92
2022/07/15 10:43:49;;;;;;;3.38;1.05;;;29.30;56.70;;;;;;5074040;28;20033;-92
2022/07/15 10:46:25;;;;;;;1.75;1.00;;;29.30;57.30;;;;;;5057674;28;20073;-90
2022/07/15 10:49:00;;;;;;;1.40;0.90;;;29.40;54.10;;;;;;5057155;28;20029;-90
2022/07/15 10:51:35;;;;;;;6.38;1.10;;;29.40;52.20;;;;;;5053790;28;20058;-91
2022/07/15 10:54:21;;;;;;;2.15;0.88;;;29.40;53.20;;;;;;5054896;28;20400;-91
2022/07/15 10:56:51;;;;;;;2.67;0.70;;;29.30;53.40;;;;;;5049113;28;20504;-92
2022/07/15 10:59:21;;;;;;;3.13;1.10;;;29.20;48.90;;;;;;5056196;28;20059;-91
2022/07/15 11:02:07;;;;;;;1.98;0.88;;;29.00;45.70;;;;;;5056293;28;20058;-91
2022/07/15 11:04:34;;;;;;;2.37;0.87;;;28.80;43.00;;;;;;5055073;28;20139;-91
2022/07/15 11:07:09;;;;;;;3.05;0.95;;;28.60;42.50;;;;;;5055305;28;20823;-91
2022/07/15 11:09:55;;;;;;;;;;;28.60;41.50;;;;;;5057004;28;20028;-90
2022/07/15 11:12:49;;;;;;;1.48;1.00;;;28.40;40.20;;;;;;5056152;28;19912;-90
2022/07/15 11:15:18;;;;;;;4.10;0.90;;;28.30;40.90;;;;;;5056442;28;20055;-91
2022/07/15 11:17:49;;;;;;;1.45;0.85;;;28.30;40.90;;;;;;5074928;28;20561;-91
2022/07/15 11:20:23;;;;;;;2.60;0.82;;;28.40;39.60;;;;;;5076261;28;20119;-90
2022/07/15 11:22:52;;;;;;;1.98;1.05;;;28.60;39.40;;;;;;5062648;28;20113;-91
2022/07/15 11:25:18;;;;;;;9.73;1.20;;;28.90;38.60;;;;;;5056629;28;20025;-91
2022/07/15 11:28:00;;;;;;;2.42;1.08;;;29.20;37.90;;;;;;5054476;28;20111;-92
2022/07/15 11:30:32;;;;;;;4.30;1.02;;;29.50;37.20;;;;;;5055789;28;20028;-91
2022/07/15 11:32:59;;;;;;;4.65;1.00;;;29.60;37.70;;;;;;5056375;28;20550;-90
2022/07/15 11:35:26;;;;;;;3.65;1.50;;;29.70;35.80;;;;;;5055585;28;20409;-92
2022/07/15 11:38:04;;;;;;;3.17;1.00;;;29.70;36.60;;;;;;5055908;28;20659;-90
2022/07/15 11:46:04;;;;;;;3.53;1.27;;;29.70;36.30;;;;;;5054736;28;20029;-91
2022/07/15 11:48:38;;;;;;;2.47;1.30;;;29.60;35.50;;;;;;5035849;28;20033;-91
2022/07/15 11:51:05;;;;;;;5.85;1.33;;;29.70;33.80;;;;;;5035995;28;20025;-91
2022/07/15 11:53:43;;;;;;;4.10;0.98;;;29.60;33.30;;;;;;5070131;28;20024;-92
2022/07/15 11:56:11;;;;;;;3.00;0.90;;;29.50;34.60;;;;;;5075803;28;20031;-92
2022/07/15 11:58:57;;;;;;;1.30;0.70;;;29.50;33.30;;;;;;5075589;28;20028;-91
2022/07/15 12:01:30;;;;;;;2.40;1.20;;;29.50;33.30;;;;;;5058850;28;20112;-90
2022/07/15 12:03:58;;;;;;;1.50;0.70;;;29.50;33.90;;;;;;5056121;28;20119;-91
2022/07/15 12:06:28;;;;;;;1.92;1.00;;;29.60;33.10;;;;;;5055646;28;20020;-91
2022/07/15 12:09:03;;;;;;;2.92;1.02;;;29.70;33.50;;;;;;5067671;28;20035;-91
2022/07/15 12:11:35;;;;;;;2.28;0.70;;;30.00;32.60;;;;;;5075734;28;20113;-91
2022/07/15 12:14:02;;;;;;;7.05;1.20;;;30.20;31.50;;;;;;5085458;28;20012;-92
2022/07/15 12:16:32;;;;;;;2.70;1.08;;;30.40;31.90;;;;;;5085774;28;20081;-91
2022/07/15 12:19:02;;;;;;;2.58;1.00;;;30.50;32.30;;;;;;5056170;28;20024;-91
2022/07/15 12:21:29;;;;;;;3.00;1.30;;;30.70;32.50;;;;;;5061650;28;20036;-91
2022/07/15 12:24:00;;;;;;;1.73;1.00;;;30.80;32.00;;;;;;5075317;28;20024;-92
2022/07/15 12:26:26;;;;;;;2.38;1.00;;;30.90;31.30;;;;;;5093484;28;20035;-91
2022/07/15 12:29:00;;;;;;;2.17;1.08;;;30.90;30.80;;;;;;5063130;28;20033;-90
2022/07/15 12:31:34;;;;;;;6.38;1.10;;;30.80;30.20;;;;;;5055748;28;20048;-90
2022/07/15 12:34:00;;;;;;;3.47;0.98;;;30.70;29.80;;;;;;5055449;28;20025;-91
2022/07/15 12:36:29;;;;;;;2.30;0.90;;;30.50;29.60;;;;;;5054429;28;20057;-90
2022/07/15 12:39:15;;;;;;;2.30;0.93;;;30.40;29.50;;;;;;5042349;28;20497;-90
2022/07/15 12:41:42;;;;;;;2.75;1.02;;;30.30;29.60;;;;;;5052137;28;20059;-91
2022/07/15 12:44:08;;;;;;;2.00;0.85;;;30.40;30.00;;;;;;5063237;28;20020;-92
2022/07/15 12:46:56;;;;;;;3.38;0.90;;;30.70;30.00;;;;;;5058824;28;20028;-91
2022/07/15 12:49:46;;;;;;;2.13;0.85;;;31.10;29.80;;;;;;5069556;28;20074;-91
2022/07/15 12:52:30;;;;;;;3.38;0.85;;;31.40;29.20;;;;;;5049782;28;20030;-89
2022/07/15 12:54:57;;;;;;;3.55;1.65;;;31.50;28.80;;;;;;5058618;28;20032;-91
2022/07/15 12:57:36;;;;;;;2.53;0.90;;;31.60;28.00;;;;;;5036433;28;20450;-91
2022/07/15 13:00:23;;;;;;;12.55;1.50;;;31.70;28.20;;;;;;5047576;28;20156;-91
2022/07/15 13:03:15;;;;;;;3.47;1.23;;;31.70;28.50;;;;;;5020975;28;20041;-91
2022/07/15 13:05:46;;;;;;;4.60;0.90;;;31.60;28.90;;;;;;5016972;28;20037;-91
2022/07/15 13:08:14;;;;;;;5.72;0.82;;;31.60;28.40;;;;;;5032588;28;20455;-88